Terminal Aerodrome Forecast
Issued by NWS

Home | Current Version | Previous Version | Text Only | Print | Product List | Glossary On
Versions: 1 2 3 4 5 6 7 8 9 10 11 12 13 14 15
000
FTUS46 KLOX 192300 RRA
TAFOXR
TAF
KOXR 192354Z 2000/2024 27012KT P6SM SKC
     FM200300 29006KT P6SM SCT007
     FM200600 VRB03KT 5SM BR BKN007
     FM201300 VRB03KT 5SM BR OVC012
     FM201800 26008KT P6SM SCT012 SCT250
     FM202100 27014KT P6SM SCT012 SCT250=

USA.gov is the U.S. government's official web portal to all federal, state and local government web resources and services.